sensor_id;sensor_type;location;lat;lon;timestamp;pressure;altitude;pressure_sealevel;temperature;humidity
67803;BME280;54601;51.378;-1.342;2023-03-15T00:00:54;100070.77;;;16.29;32.27
67803;BME280;54601;51.378;-1.342;2023-03-15T00:03:20;100071.60;;;15.94;32.43
67803;BME280;54601;51.378;-1.342;2023-03-15T00:05:47;100073.80;;;16.31;32.00
67803;BME280;54601;51.378;-1.342;2023-03-15T00:08:10;100079.90;;;16.39;31.88
67803;BME280;54601;51.378;-1.342;2023-03-15T00:10:35;100082.31;;;16.67;31.77
67803;BME280;54601;51.378;-1.342;2023-03-15T00:13:00;100090.20;;;16.52;31.92
67803;BME280;54601;51.378;-1.342;2023-03-15T00:15:25;100096.73;;;16.27;31.93
67803;BME280;54601;51.378;-1.342;2023-03-15T00:17:51;100100.73;;;16.30;31.88
67803;BME280;54601;51.378;-1.342;2023-03-15T00:20:16;100100.68;;;16.89;31.48
67803;BME280;54601;51.378;-1.342;2023-03-15T00:22:41;100101.39;;;16.52;31.87
67803;BME280;54601;51.378;-1.342;2023-03-15T00:25:08;100101.15;;;16.46;31.66
67803;BME280;54601;51.378;-1.342;2023-03-15T00:27:32;100108.38;;;16.56;31.47
67803;BME280;54601;51.378;-1.342;2023-03-15T00:29:57;100114.56;;;16.82;31.47
67803;BME280;54601;51.378;-1.342;2023-03-15T00:32:22;100119.36;;;16.66;31.38
67803;BME280;54601;51.378;-1.342;2023-03-15T00:34:48;100117.75;;;16.89;31.36
67803;BME280;54601;51.378;-1.342;2023-03-15T00:37:13;100115.51;;;16.75;31.23
67803;BME280;54601;51.378;-1.342;2023-03-15T00:39:38;100114.54;;;16.73;31.24
67803;BME280;54601;51.378;-1.342;2023-03-15T00:42:04;100111.77;;;16.76;31.18
67803;BME280;54601;51.378;-1.342;2023-03-15T00:44:29;100111.24;;;16.88;31.28
67803;BME280;54601;51.378;-1.342;2023-03-15T00:46:54;100118.27;;;16.67;31.27
67803;BME280;54601;51.378;-1.342;2023-03-15T00:49:20;100121.80;;;16.74;31.16
67803;BME280;54601;51.378;-1.342;2023-03-15T00:51:45;100125.20;;;16.64;31.20
67803;BME280;54601;51.378;-1.342;2023-03-15T00:54:10;100123.56;;;16.66;31.15
67803;BME280;54601;51.378;-1.342;2023-03-15T00:56:35;100121.82;;;16.95;31.09
67803;BME280;54601;51.378;-1.342;2023-03-15T00:59:01;100122.34;;;16.80;31.02
67803;BME280;54601;51.378;-1.342;2023-03-15T01:01:28;100133.52;;;16.89;30.90
67803;BME280;54601;51.378;-1.342;2023-03-15T01:03:52;100134.68;;;16.95;30.82
67803;BME280;54601;51.378;-1.342;2023-03-15T01:06:18;100132.02;;;16.92;30.82
67803;BME280;54601;51.378;-1.342;2023-03-15T01:08:43;100136.70;;;16.94;30.72
67803;BME280;54601;51.378;-1.342;2023-03-15T01:11:10;100138.86;;;17.07;30.62
67803;BME280;54601;51.378;-1.342;2023-03-15T01:13:33;100137.46;;;16.87;30.82
67803;BME280;54601;51.378;-1.342;2023-03-15T01:15:58;100131.88;;;16.86;30.83
67803;BME280;54601;51.378;-1.342;2023-03-15T01:18:23;100135.44;;;16.90;30.74
67803;BME280;54601;51.378;-1.342;2023-03-15T01:20:48;100139.73;;;16.88;30.75
67803;BME280;54601;51.378;-1.342;2023-03-15T01:23:14;100144.12;;;17.26;30.51
67803;BME280;54601;51.378;-1.342;2023-03-15T01:25:39;100149.29;;;16.83;30.75
67803;BME280;54601;51.378;-1.342;2023-03-15T01:28:04;100153.21;;;16.79;30.79
67803;BME280;54601;51.378;-1.342;2023-03-15T01:30:29;100153.99;;;16.83;30.70
67803;BME280;54601;51.378;-1.342;2023-03-15T01:32:55;100149.56;;;16.95;30.55
67803;BME280;54601;51.378;-1.342;2023-03-15T01:35:20;100145.89;;;16.82;30.66
67803;BME280;54601;51.378;-1.342;2023-03-15T01:37:48;100148.56;;;16.73;30.69
67803;BME280;54601;51.378;-1.342;2023-03-15T01:40:12;100153.99;;;16.99;30.53
67803;BME280;54601;51.378;-1.342;2023-03-15T01:45:01;100168.15;;;16.87;30.52
67803;BME280;54601;51.378;-1.342;2023-03-15T01:47:27;100169.03;;;16.49;30.68
67803;BME280;54601;51.378;-1.342;2023-03-15T01:49:56;100169.21;;;16.96;30.36
67803;BME280;54601;51.378;-1.342;2023-03-15T01:52:19;100170.35;;;16.81;30.51
67803;BME280;54601;51.378;-1.342;2023-03-15T01:54:44;100171.06;;;16.89;30.37
67803;BME280;54601;51.378;-1.342;2023-03-15T01:57:11;100176.55;;;16.64;30.27
67803;BME280;54601;51.378;-1.342;2023-03-15T01:59:38;100177.95;;;17.00;30.22
67803;BME280;54601;51.378;-1.342;2023-03-15T02:01:59;100177.78;;;16.97;30.20
67803;BME280;54601;51.378;-1.342;2023-03-15T02:04:28;100174.87;;;17.11;30.08
67803;BME280;54601;51.378;-1.342;2023-03-15T02:06:49;100173.16;;;16.85;30.31
67803;BME280;54601;51.378;-1.342;2023-03-15T02:09:16;100176.98;;;16.95;30.12
67803;BME280;54601;51.378;-1.342;2023-03-15T02:11:40;100182.44;;;16.65;30.27
67803;BME280;54601;51.378;-1.342;2023-03-15T02:14:05;100182.31;;;16.86;30.20
67803;BME280;54601;51.378;-1.342;2023-03-15T02:16:30;100181.94;;;16.98;30.08
67803;BME280;54601;51.378;-1.342;2023-03-15T02:18:55;100182.90;;;17.09;29.90
67803;BME280;54601;51.378;-1.342;2023-03-15T02:21:29;100177.53;;;17.13;29.88
67803;BME280;54601;51.378;-1.342;2023-03-15T02:23:51;100179.45;;;17.01;29.98
67803;BME280;54601;51.378;-1.342;2023-03-15T02:26:16;100183.38;;;17.01;29.97
67803;BME280;54601;51.378;-1.342;2023-03-15T02:28:37;100180.87;;;17.08;29.83
67803;BME280;54601;51.378;-1.342;2023-03-15T02:31:02;100181.56;;;17.19;29.70
67803;BME280;54601;51.378;-1.342;2023-03-15T02:33:29;100178.43;;;17.38;29.46
67803;BME280;54601;51.378;-1.342;2023-03-15T02:35:53;100181.26;;;16.91;29.65
67803;BME280;54601;51.378;-1.342;2023-03-15T02:38:18;100184.44;;;16.94;29.88
67803;BME280;54601;51.378;-1.342;2023-03-15T02:40:43;100186.61;;;16.96;29.80
67803;BME280;54601;51.378;-1.342;2023-03-15T02:43:13;100185.20;;;17.15;29.64
67803;BME280;54601;51.378;-1.342;2023-03-15T02:45:34;100181.54;;;16.98;29.79
67803;BME280;54601;51.378;-1.342;2023-03-15T02:47:59;100185.65;;;17.15;29.62
67803;BME280;54601;51.378;-1.342;2023-03-15T02:50:24;100187.14;;;17.17;29.55
67803;BME280;54601;51.378;-1.342;2023-03-15T02:52:49;100185.16;;;16.93;29.73
67803;BME280;54601;51.378;-1.342;2023-03-15T02:55:15;100180.10;;;16.94;29.74
67803;BME280;54601;51.378;-1.342;2023-03-15T02:57:40;100180.96;;;17.26;29.41
67803;BME280;54601;51.378;-1.342;2023-03-15T03:00:07;100180.73;;;17.04;29.56
67803;BME280;54601;51.378;-1.342;2023-03-15T03:02:31;100179.90;;;17.36;29.22
67803;BME280;54601;51.378;-1.342;2023-03-15T03:04:56;100182.26;;;17.16;29.40
67803;BME280;54601;51.378;-1.342;2023-03-15T03:07:21;100182.21;;;16.98;29.24
67803;BME280;54601;51.378;-1.342;2023-03-15T03:09:46;100178.30;;;17.49;29.00
67803;BME280;54601;51.378;-1.342;2023-03-15T03:12:12;100179.11;;;17.08;29.37
67803;BME280;54601;51.378;-1.342;2023-03-15T03:14:37;100182.71;;;17.48;28.98
67803;BME280;54601;51.378;-1.342;2023-03-15T03:17:02;100187.67;;;17.17;29.28
67803;BME280;54601;51.378;-1.342;2023-03-15T03:19:28;100188.78;;;17.08;29.37
67803;BME280;54601;51.378;-1.342;2023-03-15T03:21:53;100188.27;;;17.33;29.01
67803;BME280;54601;51.378;-1.342;2023-03-15T03:24:18;100192.08;;;17.16;29.17
67803;BME280;54601;51.378;-1.342;2023-03-15T03:26:43;100198.04;;;17.17;29.18
67803;BME280;54601;51.378;-1.342;2023-03-15T03:29:09;100204.06;;;17.23;29.11
67803;BME280;54601;51.378;-1.342;2023-03-15T03:31:34;100204.84;;;17.33;29.20
67803;BME280;54601;51.378;-1.342;2023-03-15T03:33:59;100211.34;;;17.16;29.35
67803;BME280;54601;51.378;-1.342;2023-03-15T03:36:25;100219.90;;;17.41;29.04
67803;BME280;54601;51.378;-1.342;2023-03-15T03:38:50;100231.01;;;17.48;28.92
67803;BME280;54601;51.378;-1.342;2023-03-15T03:41:15;100232.87;;;16.94;29.29
67803;BME280;54601;51.378;-1.342;2023-03-15T03:43:41;100230.14;;;17.26;28.93
67803;BME280;54601;51.378;-1.342;2023-03-15T03:46:06;100226.07;;;16.96;29.19
67803;BME280;54601;51.378;-1.342;2023-03-15T03:48:31;100227.01;;;16.88;29.28
67803;BME280;54601;51.378;-1.342;2023-03-15T03:50:57;100228.48;;;17.16;28.99
67803;BME280;54601;51.378;-1.342;2023-03-15T03:53:22;100218.94;;;17.17;28.91
67803;BME280;54601;51.378;-1.342;2023-03-15T03:55:47;100217.50;;;17.15;28.89
67803;BME280;54601;51.378;-1.342;2023-03-15T03:58:12;100217.64;;;17.29;28.78
67803;BME280;54601;51.378;-1.342;2023-03-15T04:00:38;100223.87;;;17.18;28.86
67803;BME280;54601;51.378;-1.342;2023-03-15T04:03:03;100224.77;;;17.20;28.80
67803;BME280;54601;51.378;-1.342;2023-03-15T04:05:29;100222.41;;;17.36;28.81
67803;BME280;54601;51.378;-1.342;2023-03-15T04:07:54;100213.15;;;17.44;28.70
67803;BME280;54601;51.378;-1.342;2023-03-15T04:10:19;100207.05;;;17.07;29.13
67803;BME280;54601;51.378;-1.342;2023-03-15T04:12:44;100211.64;;;16.92;28.96
67803;BME280;54601;51.378;-1.342;2023-03-15T04:15:11;100218.97;;;17.26;28.87
67803;BME280;54601;51.378;-1.342;2023-03-15T04:17:35;100214.91;;;16.75;29.07
67803;BME280;54601;51.378;-1.342;2023-03-15T04:20:00;100216.51;;;17.22;28.84
67803;BME280;54601;51.378;-1.342;2023-03-15T04:22:26;100213.95;;;17.16;28.86
67803;BME280;54601;51.378;-1.342;2023-03-15T04:24:51;100213.47;;;16.91;28.83
67803;BME280;54601;51.378;-1.342;2023-03-15T04:27:16;100216.53;;;17.13;28.59
67803;BME280;54601;51.378;-1.342;2023-03-15T04:29:42;100211.97;;;17.26;28.67
67803;BME280;54601;51.378;-1.342;2023-03-15T04:32:08;100210.63;;;17.23;28.68
67803;BME280;54601;51.378;-1.342;2023-03-15T04:34:33;100216.30;;;17.02;28.62
67803;BME280;54601;51.378;-1.342;2023-03-15T04:36:58;100220.31;;;17.16;28.64
67803;BME280;54601;51.378;-1.342;2023-03-15T04:39:24;100220.85;;;17.30;28.43
67803;BME280;54601;51.378;-1.342;2023-03-15T04:41:49;100225.50;;;17.25;28.46
67803;BME280;54601;51.378;-1.342;2023-03-15T04:44:14;100228.30;;;17.24;28.35
67803;BME280;54601;51.378;-1.342;2023-03-15T04:46:39;100231.54;;;16.74;28.43
67803;BME280;54601;51.378;-1.342;2023-03-15T04:49:05;100227.99;;;17.36;28.31
67803;BME280;54601;51.378;-1.342;2023-03-15T04:51:30;100222.76;;;17.32;28.27
67803;BME280;54601;51.378;-1.342;2023-03-15T04:53:55;100214.60;;;17.08;28.25
67803;BME280;54601;51.378;-1.342;2023-03-15T04:56:21;100214.72;;;17.10;28.46
67803;BME280;54601;51.378;-1.342;2023-03-15T04:58:46;100214.40;;;17.06;28.26
67803;BME280;54601;51.378;-1.342;2023-03-15T05:01:12;100215.63;;;16.92;28.34
67803;BME280;54601;51.378;-1.342;2023-03-15T05:03:37;100218.76;;;17.17;28.08
67803;BME280;54601;51.378;-1.342;2023-03-15T05:06:02;100216.07;;;17.07;28.12
67803;BME280;54601;51.378;-1.342;2023-03-15T05:08:27;100213.21;;;17.09;27.87
67803;BME280;54601;51.378;-1.342;2023-03-15T05:10:53;100210.98;;;17.24;27.78
67803;BME280;54601;51.378;-1.342;2023-03-15T05:13:18;100217.93;;;17.22;27.88
67803;BME280;54601;51.378;-1.342;2023-03-15T05:15:43;100225.02;;;17.29;27.98
67803;BME280;54601;51.378;-1.342;2023-03-15T05:18:09;100229.73;;;17.13;27.93
67803;BME280;54601;51.378;-1.342;2023-03-15T05:20:34;100232.01;;;17.23;27.76
67803;BME280;54601;51.378;-1.342;2023-03-15T05:22:59;100235.80;;;17.84;27.67
67803;BME280;54601;51.378;-1.342;2023-03-15T05:25:25;100238.51;;;17.25;27.84
67803;BME280;54601;51.378;-1.342;2023-03-15T05:27:50;100241.46;;;17.17;27.77
67803;BME280;54601;51.378;-1.342;2023-03-15T05:30:15;100244.02;;;17.32;27.83
67803;BME280;54601;51.378;-1.342;2023-03-15T05:32:41;100249.90;;;17.03;27.95
67803;BME280;54601;51.378;-1.342;2023-03-15T05:35:07;100255.84;;;17.24;28.09
67803;BME280;54601;51.378;-1.342;2023-03-15T05:37:32;100251.43;;;16.99;28.03
67803;BME280;54601;51.378;-1.342;2023-03-15T05:39:57;100253.12;;;17.09;27.96
67803;BME280;54601;51.378;-1.342;2023-03-15T05:42:22;100247.52;;;17.20;27.80
67803;BME280;54601;51.378;-1.342;2023-03-15T05:44:47;100253.41;;;16.88;27.86
67803;BME280;54601;51.378;-1.342;2023-03-15T05:47:12;100255.11;;;17.06;27.88
67803;BME280;54601;51.378;-1.342;2023-03-15T05:49:38;100260.40;;;17.08;27.72
67803;BME280;54601;51.378;-1.342;2023-03-15T05:52:04;100265.67;;;17.10;27.77
67803;BME280;54601;51.378;-1.342;2023-03-15T05:54:28;100260.28;;;17.04;27.79
67803;BME280;54601;51.378;-1.342;2023-03-15T05:56:54;100257.48;;;17.00;27.82
67803;BME280;54601;51.378;-1.342;2023-03-15T05:59:19;100261.68;;;16.97;27.81
67803;BME280;54601;51.378;-1.342;2023-03-15T06:01:44;100261.33;;;17.05;27.80
67803;BME280;54601;51.378;-1.342;2023-03-15T06:04:10;100262.89;;;16.94;27.86
67803;BME280;54601;51.378;-1.342;2023-03-15T06:06:35;100264.95;;;16.76;27.78
67803;BME280;54601;51.378;-1.342;2023-03-15T06:09:00;100268.95;;;16.61;27.82
67803;BME280;54601;51.378;-1.342;2023-03-15T06:11:26;100272.18;;;16.76;27.75
67803;BME280;54601;51.378;-1.342;2023-03-15T06:13:51;100274.54;;;16.65;27.79
67803;BME280;54601;51.378;-1.342;2023-03-15T06:16:16;100275.79;;;16.65;27.95
67803;BME280;54601;51.378;-1.342;2023-03-15T06:18:42;100274.80;;;16.75;27.89
67803;BME280;54601;51.378;-1.342;2023-03-15T06:21:07;100278.05;;;16.84;27.64
67803;BME280;54601;51.378;-1.342;2023-03-15T06:23:32;100277.30;;;17.10;27.75
67803;BME280;54601;51.378;-1.342;2023-03-15T06:25:57;100283.93;;;16.49;27.88
67803;BME280;54601;51.378;-1.342;2023-03-15T06:28:23;100283.11;;;17.12;27.47
67803;BME280;54601;51.378;-1.342;2023-03-15T06:30:48;100281.35;;;16.87;27.64
67803;BME280;54601;51.378;-1.342;2023-03-15T06:33:13;100277.13;;;16.88;27.63
67803;BME280;54601;51.378;-1.342;2023-03-15T06:35:39;100278.23;;;16.61;27.58
67803;BME280;54601;51.378;-1.342;2023-03-15T06:38:04;100278.86;;;16.65;27.72
67803;BME280;54601;51.378;-1.342;2023-03-15T06:40:30;100282.69;;;16.32;28.01
67803;BME280;54601;51.378;-1.342;2023-03-15T06:42:55;100280.20;;;16.66;28.03
67803;BME280;54601;51.378;-1.342;2023-03-15T06:45:20;100280.47;;;16.77;27.60
67803;BME280;54601;51.378;-1.342;2023-03-15T06:47:45;100280.96;;;17.00;27.62
67803;BME280;54601;51.378;-1.342;2023-03-15T06:50:11;100290.02;;;17.22;27.40
67803;BME280;54601;51.378;-1.342;2023-03-15T06:52:36;100296.44;;;16.52;27.78
67803;BME280;54601;51.378;-1.342;2023-03-15T06:55:01;100298.80;;;16.67;27.61
67803;BME280;54601;51.378;-1.342;2023-03-15T06:57:27;100302.51;;;16.84;27.45
67803;BME280;54601;51.378;-1.342;2023-03-15T06:59:52;100304.54;;;16.72;27.51
67803;BME280;54601;51.378;-1.342;2023-03-15T07:02:17;100303.94;;;16.92;27.35
67803;BME280;54601;51.378;-1.342;2023-03-15T07:04:43;100304.60;;;16.76;27.46
67803;BME280;54601;51.378;-1.342;2023-03-15T07:07:08;100304.91;;;16.94;27.55
67803;BME280;54601;51.378;-1.342;2023-03-15T07:09:33;100308.97;;;16.78;27.67
67803;BME280;54601;51.378;-1.342;2023-03-15T07:11:58;100311.37;;;16.68;27.37
67803;BME280;54601;51.378;-1.342;2023-03-15T07:14:24;100310.15;;;17.00;27.47
67803;BME280;54601;51.378;-1.342;2023-03-15T07:16:49;100312.58;;;16.71;27.60
67803;BME280;54601;51.378;-1.342;2023-03-15T07:19:14;100317.07;;;16.93;27.49
67803;BME280;54601;51.378;-1.342;2023-03-15T07:21:40;100316.21;;;16.79;27.58
67803;BME280;54601;51.378;-1.342;2023-03-15T07:24:05;100318.66;;;16.66;27.64
67803;BME280;54601;51.378;-1.342;2023-03-15T07:26:30;100317.28;;;16.87;27.48
67803;BME280;54601;51.378;-1.342;2023-03-15T07:28:56;100314.68;;;16.64;27.66
67803;BME280;54601;51.378;-1.342;2023-03-15T07:31:21;100316.67;;;16.55;27.50
67803;BME280;54601;51.378;-1.342;2023-03-15T07:33:46;100320.38;;;16.47;27.53
67803;BME280;54601;51.378;-1.342;2023-03-15T07:36:12;100316.75;;;16.50;27.56
67803;BME280;54601;51.378;-1.342;2023-03-15T07:38:37;100311.00;;;16.77;27.48
67803;BME280;54601;51.378;-1.342;2023-03-15T07:41:04;100312.71;;;16.58;27.44
67803;BME280;54601;51.378;-1.342;2023-03-15T07:43:28;100318.06;;;16.73;27.61
67803;BME280;54601;51.378;-1.342;2023-03-15T07:45:53;100321.00;;;16.84;27.44
67803;BME280;54601;51.378;-1.342;2023-03-15T07:48:18;100323.22;;;16.47;27.46
67803;BME280;54601;51.378;-1.342;2023-03-15T07:50:44;100322.21;;;16.65;27.57
67803;BME280;54601;51.378;-1.342;2023-03-15T07:53:09;100321.49;;;16.48;27.49
67803;BME280;54601;51.378;-1.342;2023-03-15T07:55:34;100318.31;;;16.73;27.50
67803;BME280;54601;51.378;-1.342;2023-03-15T07:58:00;100314.70;;;16.42;27.52
67803;BME280;54601;51.378;-1.342;2023-03-15T08:00:26;100314.28;;;16.57;27.36
67803;BME280;54601;51.378;-1.342;2023-03-15T08:02:51;100313.98;;;16.26;27.87
67803;BME280;54601;51.378;-1.342;2023-03-15T08:05:16;100312.55;;;16.73;27.50
67803;BME280;54601;51.378;-1.342;2023-03-15T08:07:41;100312.91;;;16.57;27.46
67803;BME280;54601;51.378;-1.342;2023-03-15T08:10:08;100314.03;;;16.26;27.54
67803;BME280;54601;51.378;-1.342;2023-03-15T08:12:32;100320.27;;;16.49;27.48
67803;BME280;54601;51.378;-1.342;2023-03-15T08:14:57;100322.99;;;16.52;27.53
67803;BME280;54601;51.378;-1.342;2023-03-15T08:17:23;100321.75;;;16.70;27.61
67803;BME280;54601;51.378;-1.342;2023-03-15T08:19:48;100319.91;;;16.50;27.55
67803;BME280;54601;51.378;-1.342;2023-03-15T08:22:13;100321.15;;;16.49;27.53
67803;BME280;54601;51.378;-1.342;2023-03-15T08:24:38;100318.73;;;16.63;27.69
67803;BME280;54601;51.378;-1.342;2023-03-15T08:27:04;100318.15;;;16.48;27.56
67803;BME280;54601;51.378;-1.342;2023-03-15T08:29:29;100321.74;;;16.84;27.45
67803;BME280;54601;51.378;-1.342;2023-03-15T08:31:54;100322.21;;;16.86;27.48
67803;BME280;54601;51.378;-1.342;2023-03-15T08:34:20;100321.92;;;16.87;27.44
67803;BME280;54601;51.378;-1.342;2023-03-15T08:36:45;100322.81;;;16.53;27.45
67803;BME280;54601;51.378;-1.342;2023-03-15T08:39:10;100324.33;;;16.77;27.52
67803;BME280;54601;51.378;-1.342;2023-03-15T08:41:35;100316.04;;;16.20;27.59
67803;BME280;54601;51.378;-1.342;2023-03-15T08:44:01;100317.23;;;16.65;27.42
67803;BME280;54601;51.378;-1.342;2023-03-15T08:46:27;100318.18;;;16.70;27.33
67803;BME280;54601;51.378;-1.342;2023-03-15T08:48:51;100314.74;;;16.79;27.32
67803;BME280;54601;51.378;-1.342;2023-03-15T08:51:17;100312.69;;;17.01;27.32
67803;BME280;54601;51.378;-1.342;2023-03-15T08:53:42;100315.38;;;16.82;27.53
67803;BME280;54601;51.378;-1.342;2023-03-15T08:56:07;100314.29;;;16.77;27.63
67803;BME280;54601;51.378;-1.342;2023-03-15T08:58:33;100312.99;;;16.79;27.63
67803;BME280;54601;51.378;-1.342;2023-03-15T09:00:58;100314.95;;;16.56;27.73
67803;BME280;54601;51.378;-1.342;2023-03-15T09:03:23;100310.70;;;16.85;27.58
67803;BME280;54601;51.378;-1.342;2023-03-15T09:05:48;100306.80;;;16.69;27.33
67803;BME280;54601;51.378;-1.342;2023-03-15T09:08:14;100311.06;;;16.48;27.70
67803;BME280;54601;51.378;-1.342;2023-03-15T09:10:39;100312.74;;;16.67;27.79
67803;BME280;54601;51.378;-1.342;2023-03-15T09:13:04;100311.78;;;16.33;27.62
67803;BME280;54601;51.378;-1.342;2023-03-15T09:15:30;100311.83;;;16.81;27.68
67803;BME280;54601;51.378;-1.342;2023-03-15T09:17:55;100313.43;;;16.62;27.60
67803;BME280;54601;51.378;-1.342;2023-03-15T09:20:21;100314.29;;;16.17;27.79
67803;BME280;54601;51.378;-1.342;2023-03-15T09:22:50;100312.74;;;16.64;27.56
67803;BME280;54601;51.378;-1.342;2023-03-15T09:25:11;100310.21;;;16.75;27.46
67803;BME280;54601;51.378;-1.342;2023-03-15T09:27:37;100310.57;;;16.43;27.79
67803;BME280;54601;51.378;-1.342;2023-03-15T09:30:03;100311.02;;;16.74;27.47
67803;BME280;54601;51.378;-1.342;2023-03-15T09:32:27;100310.76;;;16.75;27.47
67803;BME280;54601;51.378;-1.342;2023-03-15T09:34:53;100314.68;;;16.76;27.77
67803;BME280;54601;51.378;-1.342;2023-03-15T09:37:18;100321.04;;;16.65;27.63
67803;BME280;54601;51.378;-1.342;2023-03-15T09:39:44;100325.94;;;16.57;27.70
67803;BME280;54601;51.378;-1.342;2023-03-15T09:42:15;100326.40;;;16.59;27.62
67803;BME280;54601;51.378;-1.342;2023-03-15T09:44:41;100330.37;;;16.32;27.94
67803;BME280;54601;51.378;-1.342;2023-03-15T09:47:08;100334.69;;;16.69;27.62
67803;BME280;54601;51.378;-1.342;2023-03-15T09:49:32;100336.71;;;16.68;27.91
67803;BME280;54601;51.378;-1.342;2023-03-15T09:51:55;100336.85;;;16.64;27.69
67803;BME280;54601;51.378;-1.342;2023-03-15T09:54:20;100339.96;;;16.79;27.72
67803;BME280;54601;51.378;-1.342;2023-03-15T09:56:48;100341.19;;;16.58;27.73
67803;BME280;54601;51.378;-1.342;2023-03-15T09:59:09;100338.43;;;16.57;27.72
67803;BME280;54601;51.378;-1.342;2023-03-15T10:01:35;100338.75;;;16.47;27.87
67803;BME280;54601;51.378;-1.342;2023-03-15T10:04:03;100340.70;;;16.68;27.91
67803;BME280;54601;51.378;-1.342;2023-03-15T10:06:27;100341.78;;;16.63;27.64
67803;BME280;54601;51.378;-1.342;2023-03-15T10:08:50;100342.54;;;16.55;27.82
67803;BME280;54601;51.378;-1.342;2023-03-15T10:11:19;100348.34;;;16.81;27.76
67803;BME280;54601;51.378;-1.342;2023-03-15T10:13:50;100347.36;;;16.50;27.83
67803;BME280;54601;51.378;-1.342;2023-03-15T10:16:14;100351.70;;;16.55;27.67
67803;BME280;54601;51.378;-1.342;2023-03-15T10:18:40;100350.00;;;16.78;27.77
67803;BME280;54601;51.378;-1.342;2023-03-15T10:21:00;100353.91;;;16.49;27.84
67803;BME280;54601;51.378;-1.342;2023-03-15T10:23:25;100354.05;;;17.08;27.43
67803;BME280;54601;51.378;-1.342;2023-03-15T10:25:48;100350.06;;;16.96;27.56
67803;BME280;54601;51.378;-1.342;2023-03-15T10:28:13;100349.00;;;16.85;27.68
67803;BME280;54601;51.378;-1.342;2023-03-15T10:30:39;100350.80;;;16.53;27.71
67803;BME280;54601;51.378;-1.342;2023-03-15T10:33:10;100353.61;;;16.81;27.47
67803;BME280;54601;51.378;-1.342;2023-03-15T10:35:28;100352.25;;;16.33;27.67
67803;BME280;54601;51.378;-1.342;2023-03-15T10:37:53;100355.27;;;17.01;27.53
67803;BME280;54601;51.378;-1.342;2023-03-15T10:42:45;100352.13;;;16.73;27.53
67803;BME280;54601;51.378;-1.342;2023-03-15T10:45:17;100349.49;;;16.42;27.81
67803;BME280;54601;51.378;-1.342;2023-03-15T10:47:40;100346.00;;;16.71;27.83
67803;BME280;54601;51.378;-1.342;2023-03-15T10:50:00;100336.76;;;16.88;27.63
67803;BME280;54601;51.378;-1.342;2023-03-15T10:52:28;100336.39;;;16.57;27.66
67803;BME280;54601;51.378;-1.342;2023-03-15T10:54:51;100326.13;;;16.24;27.92
67803;BME280;54601;51.378;-1.342;2023-03-15T10:57:19;100325.72;;;16.29;27.86
67803;BME280;54601;51.378;-1.342;2023-03-15T10:59:53;100321.62;;;16.84;27.67
67803;BME280;54601;51.378;-1.342;2023-03-15T11:02:18;100319.44;;;16.86;27.58
67803;BME280;54601;51.378;-1.342;2023-03-15T11:04:33;100315.93;;;16.68;27.82
67803;BME280;54601;51.378;-1.342;2023-03-15T11:07:01;100314.73;;;16.84;27.67
67803;BME280;54601;51.378;-1.342;2023-03-15T11:09:25;100313.90;;;16.49;28.00
67803;BME280;54601;51.378;-1.342;2023-03-15T11:11:56;100315.05;;;16.89;27.58
67803;BME280;54601;51.378;-1.342;2023-03-15T11:14:14;100310.75;;;16.43;27.84
67803;BME280;54601;51.378;-1.342;2023-03-15T11:16:39;100311.15;;;16.34;27.94
67803;BME280;54601;51.378;-1.342;2023-03-15T11:19:11;100310.02;;;16.67;27.81
67803;BME280;54601;51.378;-1.342;2023-03-15T11:21:32;100308.75;;;16.48;27.78
67803;BME280;54601;51.378;-1.342;2023-03-15T11:23:56;100311.59;;;16.35;27.90
67803;BME280;54601;51.378;-1.342;2023-03-15T11:26:23;100306.69;;;16.33;27.89
67803;BME280;54601;51.378;-1.342;2023-03-15T11:28:50;100307.08;;;16.39;28.08
67803;BME280;54601;51.378;-1.342;2023-03-15T11:31:12;100303.17;;;16.60;27.94
67803;BME280;54601;51.378;-1.342;2023-03-15T11:33:44;100306.94;;;16.38;27.91
67803;BME280;54601;51.378;-1.342;2023-03-15T11:36:06;100310.51;;;16.18;28.06
67803;BME280;54601;51.378;-1.342;2023-03-15T11:38:30;100309.14;;;16.68;27.92
67803;BME280;54601;51.378;-1.342;2023-03-15T11:40:55;100306.23;;;16.74;27.82
67803;BME280;54601;51.378;-1.342;2023-03-15T11:43:21;100300.43;;;16.11;28.18
67803;BME280;54601;51.378;-1.342;2023-03-15T11:45:50;100294.10;;;16.23;28.05
67803;BME280;54601;51.378;-1.342;2023-03-15T11:48:13;100296.05;;;16.11;28.18
67803;BME280;54601;51.378;-1.342;2023-03-15T11:50:35;100300.25;;;16.68;27.89
67803;BME280;54601;51.378;-1.342;2023-03-15T11:53:01;100297.08;;;16.37;28.22
67803;BME280;54601;51.378;-1.342;2023-03-15T11:55:27;100296.12;;;16.51;28.06
67803;BME280;54601;51.378;-1.342;2023-03-15T11:57:51;100299.10;;;15.95;28.38
67803;BME280;54601;51.378;-1.342;2023-03-15T12:00:24;100295.87;;;16.02;28.06
67803;BME280;54601;51.378;-1.342;2023-03-15T12:02:48;100291.32;;;16.26;28.06
67803;BME280;54601;51.378;-1.342;2023-03-15T12:05:39;100294.03;;;16.65;27.91
67803;BME280;54601;51.378;-1.342;2023-03-15T12:07:37;100289.19;;;16.44;28.09
67803;BME280;54601;51.378;-1.342;2023-03-15T12:12:34;100289.51;;;16.43;27.89
67803;BME280;54601;51.378;-1.342;2023-03-15T12:15:00;100288.79;;;16.14;28.19
67803;BME280;54601;51.378;-1.342;2023-03-15T12:19:39;100286.24;;;16.19;28.12
67803;BME280;54601;51.378;-1.342;2023-03-15T12:22:13;100279.15;;;16.61;27.97
67803;BME280;54601;51.378;-1.342;2023-03-15T12:24:35;100268.11;;;16.64;27.95
67803;BME280;54601;51.378;-1.342;2023-03-15T12:27:01;100265.65;;;16.41;28.14
67803;BME280;54601;51.378;-1.342;2023-03-15T12:29:23;100262.60;;;16.14;28.14
67803;BME280;54601;51.378;-1.342;2023-03-15T12:31:55;100260.12;;;16.45;28.09
67803;BME280;54601;51.378;-1.342;2023-03-15T12:34:20;100263.89;;;16.27;28.03
67803;BME280;54601;51.378;-1.342;2023-03-15T12:36:39;100257.07;;;16.35;27.97
67803;BME280;54601;51.378;-1.342;2023-03-15T12:41:35;100267.91;;;16.35;28.20